createdAt,value
2019-05-23T00:01:48.457Z,10.98
2019-05-23T00:04:45.161Z,10.89
2019-05-23T00:07:31.216Z,10.92
2019-05-23T00:10:21.569Z,10.82
2019-05-23T00:12:54.971Z,10.73
2019-05-23T00:15:34.444Z,10.68
2019-05-23T00:18:01.515Z,10.60
2019-05-23T00:20:29.507Z,10.50
2019-05-23T00:22:57.077Z,10.53
2019-05-23T00:25:24.209Z,10.61
2019-05-23T00:27:52.687Z,10.62
2019-05-23T00:30:24.582Z,10.60
2019-05-23T00:32:53.281Z,10.53
2019-05-23T00:35:20.409Z,10.53
2019-05-23T00:37:48.181Z,10.46
2019-05-23T00:40:16.290Z,10.37
2019-05-23T00:42:44.720Z,10.31
2019-05-23T00:45:15.171Z,10.29
2019-05-23T00:47:42.037Z,10.26
2019-05-23T00:50:10.343Z,10.18
2019-05-23T00:52:37.836Z,10.16
2019-05-23T00:55:05.963Z,10.19
2019-05-23T00:57:33.030Z,10.13
2019-05-23T01:00:00.393Z,10.17
2019-05-23T01:02:27.231Z,10.12
2019-05-23T01:04:54.087Z,10.19
2019-05-23T01:07:21.154Z,10.09
2019-05-23T01:09:49.148Z,10.22
2019-05-23T01:12:16.119Z,10.19
2019-05-23T01:14:43.175Z,10.21
2019-05-23T01:17:11.741Z,10.16
2019-05-23T01:19:39.111Z,10.20
2019-05-23T01:22:10.296Z,10.18
2019-05-23T01:24:42.366Z,10.15
2019-05-23T01:27:09.881Z,10.18
2019-05-23T01:29:39.194Z,10.23
2019-05-23T01:32:25.550Z,10.14
2019-05-23T01:34:52.912Z,10.15
2019-05-23T01:37:20.881Z,10.15
2019-05-23T01:39:48.100Z,10.09
2019-05-23T01:42:15.987Z,9.92
2019-05-23T01:44:43.361Z,9.93
2019-05-23T01:47:10.934Z,9.82
2019-05-23T01:49:38.483Z,9.84
2019-05-23T01:52:06.303Z,9.89
2019-05-23T01:54:33.223Z,9.87
2019-05-23T01:57:00.130Z,9.87
2019-05-23T01:59:27.741Z,9.79
2019-05-23T02:01:54.443Z,9.76
2019-05-23T02:04:22.076Z,9.80
2019-05-23T02:06:48.813Z,9.81
2019-05-23T02:09:16.450Z,9.84
2019-05-23T02:11:43.318Z,9.81
2019-05-23T02:14:10.883Z,9.70
2019-05-23T02:16:38.445Z,9.70
2019-05-23T02:19:07.214Z,9.67
2019-05-23T02:21:34.746Z,9.68
2019-05-23T02:24:04.670Z,9.79
2019-05-23T02:26:32.155Z,9.78
2019-05-23T02:29:00.345Z,9.77
2019-05-23T02:31:27.704Z,9.73
2019-05-23T02:33:55.183Z,9.72
2019-05-23T02:36:22.468Z,9.72
2019-05-23T02:39:00.466Z,9.67
2019-05-23T02:41:38.088Z,9.76
2019-05-23T02:44:15.861Z,9.67
2019-05-23T02:46:50.961Z,9.59
2019-05-23T02:49:27.464Z,9.67
2019-05-23T02:51:55.123Z,9.55
2019-05-23T02:54:26.516Z,9.56
2019-05-23T02:56:56.133Z,9.57
2019-05-23T02:59:48.461Z,9.60
2019-05-23T03:02:39.226Z,9.48
2019-05-23T03:05:09.933Z,9.49
2019-05-23T03:07:38.340Z,9.49
2019-05-23T03:10:09.271Z,9.51
2019-05-23T03:12:38.310Z,9.57
2019-05-23T03:15:08.262Z,9.54
2019-05-23T03:17:42.608Z,9.53
2019-05-23T03:20:10.891Z,9.50
2019-05-23T03:22:56.738Z,9.47
2019-05-23T03:25:37.744Z,9.44
2019-05-23T03:28:07.087Z,9.42
2019-05-23T03:30:42.161Z,9.41
2019-05-23T03:33:09.482Z,9.45
2019-05-23T03:35:38.381Z,9.54
2019-05-23T03:38:05.443Z,9.53
2019-05-23T03:40:32.664Z,9.56
2019-05-23T03:43:00.763Z,9.59
2019-05-23T03:45:32.275Z,9.62
2019-05-23T03:48:00.366Z,9.73
2019-05-23T03:50:28.961Z,10.06
2019-05-23T03:52:56.474Z,10.09
2019-05-23T03:55:24.443Z,10.05
2019-05-23T03:57:52.442Z,10.07
2019-05-23T04:00:21.085Z,10.07
2019-05-23T04:02:49.616Z,10.03
2019-05-23T04:05:16.960Z,10.07
2019-05-23T04:07:44.418Z,10.08
2019-05-23T04:10:11.899Z,10.14
2019-05-23T04:12:38.818Z,10.24
2019-05-23T04:15:07.246Z,10.30
2019-05-23T04:17:34.138Z,10.39
2019-05-23T04:20:01.397Z,10.49
2019-05-23T04:22:28.872Z,10.70
2019-05-23T04:24:56.003Z,10.81
2019-05-23T04:27:23.354Z,10.94
2019-05-23T04:29:50.148Z,11.06
2019-05-23T04:32:17.270Z,11.18
2019-05-23T04:34:44.154Z,11.30
2019-05-23T04:37:11.005Z,11.47
2019-05-23T04:39:37.859Z,11.67
2019-05-23T04:42:04.928Z,11.74
2019-05-23T04:44:31.811Z,11.82
2019-05-23T04:46:59.551Z,12.08
2019-05-23T04:49:26.783Z,12.35
2019-05-23T04:51:54.739Z,12.87
2019-05-23T04:54:23.002Z,13.14
2019-05-23T04:56:50.640Z,13.29
2019-05-23T04:59:18.547Z,13.37
2019-05-23T05:01:46.897Z,13.50
2019-05-23T05:04:13.959Z,13.67
2019-05-23T05:06:41.790Z,13.82
2019-05-23T05:09:10.076Z,14.26
2019-05-23T05:11:36.865Z,14.68
2019-05-23T05:14:04.525Z,14.79
2019-05-23T05:16:31.963Z,14.73
2019-05-23T05:18:58.995Z,14.76
2019-05-23T05:21:26.113Z,14.81
2019-05-23T05:23:52.875Z,14.83
2019-05-23T05:26:22.229Z,14.52
2019-05-23T05:28:50.284Z,14.23
2019-05-23T05:31:17.585Z,14.84
2019-05-23T05:33:44.481Z,15.71
2019-05-23T05:36:11.890Z,16.13
2019-05-23T05:38:38.976Z,16.24
2019-05-23T05:41:06.040Z,16.09
2019-05-23T05:43:32.985Z,16.20
2019-05-23T05:45:59.912Z,15.98
2019-05-23T05:48:28.069Z,15.70
2019-05-23T05:50:55.104Z,15.55
2019-05-23T05:53:22.068Z,15.59
2019-05-23T05:55:48.874Z,15.44
2019-05-23T05:58:15.766Z,15.43
2019-05-23T06:00:50.402Z,15.15
2019-05-23T06:03:17.170Z,15.26
2019-05-23T06:06:02.331Z,15.34
2019-05-23T06:08:30.999Z,15.24
2019-05-23T06:10:58.630Z,15.11
2019-05-23T06:13:25.322Z,14.96
2019-05-23T06:15:53.707Z,15.18
2019-05-23T06:18:20.491Z,14.97
2019-05-23T06:20:48.589Z,15.05
2019-05-23T06:23:16.348Z,15.08
2019-05-23T06:25:43.210Z,14.92
2019-05-23T06:28:13.202Z,14.99
2019-05-23T06:30:41.908Z,14.77
2019-05-23T06:33:22.843Z,14.69
2019-05-23T06:35:38.296Z,14.76
2019-05-23T06:38:05.279Z,14.96
2019-05-23T06:40:40.766Z,15.11
2019-05-23T06:43:25.834Z,15.14
2019-05-23T06:46:06.435Z,15.37
2019-05-23T06:48:45.814Z,15.50
2019-05-23T06:51:26.681Z,15.47
2019-05-23T06:53:58.670Z,15.63
2019-05-23T06:56:43.866Z,15.76
2019-05-23T06:59:29.149Z,15.61
2019-05-23T07:02:15.547Z,15.83
2019-05-23T07:04:59.188Z,15.92
2019-05-23T07:07:39.225Z,15.99
2019-05-23T07:10:14.147Z,16.03
2019-05-23T07:12:55.124Z,16.26
2019-05-23T07:15:36.106Z,16.13
2019-05-23T07:18:15.505Z,16.27
2019-05-23T07:20:47.608Z,16.25
2019-05-23T07:23:23.285Z,16.25
2019-05-23T07:26:10.997Z,16.02
2019-05-23T07:28:51.066Z,15.92
2019-05-23T07:31:27.627Z,15.96
2019-05-23T07:34:18.158Z,15.99
2019-05-23T07:36:58.250Z,16.27
2019-05-23T07:39:27.894Z,16.55
2019-05-23T07:41:56.999Z,16.55
2019-05-23T07:44:25.029Z,16.67
2019-05-23T07:46:52.763Z,16.74
2019-05-23T07:49:24.791Z,16.74
2019-05-23T07:52:07.689Z,16.83
2019-05-23T07:54:48.775Z,16.98
2019-05-23T07:57:38.590Z,17.22
2019-05-23T08:00:21.272Z,17.03
2019-05-23T08:03:04.249Z,17.36
2019-05-23T08:05:40.572Z,17.38
2019-05-23T08:08:09.392Z,17.28
2019-05-23T08:10:39.177Z,17.19
2019-05-23T08:13:09.637Z,17.08
2019-05-23T08:15:39.914Z,17.03
2019-05-23T08:18:10.634Z,17.02
2019-05-23T08:20:38.046Z,17.13
2019-05-23T08:23:04.843Z,17.52
2019-05-23T08:25:31.719Z,17.55
2019-05-23T08:27:58.965Z,17.53
2019-05-23T08:30:25.900Z,17.45
2019-05-23T08:32:53.095Z,17.41
2019-05-23T08:35:20.317Z,17.26
2019-05-23T08:37:47.169Z,17.06
2019-05-23T08:40:15.443Z,16.97
2019-05-23T08:42:43.464Z,17.13
2019-05-23T08:45:10.987Z,17.44
2019-05-23T08:47:39.205Z,17.67
2019-05-23T08:50:08.836Z,17.78
2019-05-23T08:52:35.564Z,17.98
2019-05-23T08:55:25.132Z,18.14
2019-05-23T08:57:53.936Z,18.28
2019-05-23T09:00:24.762Z,18.53
2019-05-23T09:02:52.922Z,18.75
2019-05-23T09:05:20.951Z,18.65
2019-05-23T09:07:48.405Z,18.54
2019-05-23T09:10:15.662Z,18.27
2019-05-23T09:12:42.422Z,18.09
2019-05-23T09:15:10.484Z,17.94
2019-05-23T09:17:52.268Z,17.96
2019-05-23T09:20:08.862Z,17.81
2019-05-23T09:22:36.262Z,17.73
2019-05-23T09:25:04.635Z,18.04
2019-05-23T09:27:34.603Z,18.37
2019-05-23T09:30:01.012Z,18.59
2019-05-23T09:32:28.357Z,18.57
2019-05-23T09:34:55.034Z,18.55
2019-05-23T09:37:21.736Z,18.50
2019-05-23T09:39:49.462Z,18.58
2019-05-23T09:42:16.546Z,18.55
2019-05-23T09:44:43.381Z,18.37
2019-05-23T09:47:10.205Z,18.28
2019-05-23T09:49:36.935Z,18.38
2019-05-23T09:52:05.242Z,18.46
2019-05-23T09:54:32.477Z,18.87
2019-05-23T09:57:00.362Z,19.02
2019-05-23T09:59:27.382Z,19.27
2019-05-23T10:01:55.815Z,19.48
2019-05-23T10:04:22.606Z,19.48
2019-05-23T10:06:49.294Z,19.54
2019-05-23T10:09:16.016Z,19.38
2019-05-23T10:11:42.738Z,19.67
2019-05-23T10:14:11.455Z,19.80
2019-05-23T10:16:38.667Z,19.44
2019-05-23T10:19:05.475Z,19.27
2019-05-23T10:21:32.522Z,19.30
2019-05-23T10:23:59.367Z,18.97
2019-05-23T10:26:26.542Z,19.10
2019-05-23T10:28:53.536Z,18.95
2019-05-23T10:31:20.974Z,18.89
2019-05-23T10:33:47.679Z,18.95
2019-05-23T10:36:14.494Z,18.96
2019-05-23T10:38:41.724Z,19.20
2019-05-23T10:41:08.702Z,19.56
2019-05-23T10:43:35.384Z,19.68
2019-05-23T10:46:02.214Z,19.78
2019-05-23T10:48:29.820Z,19.92
2019-05-23T10:50:56.516Z,19.53
2019-05-23T10:53:23.482Z,19.70
2019-05-23T10:55:50.221Z,20.00
2019-05-23T10:58:17.565Z,20.14
2019-05-23T11:00:45.582Z,20.52
2019-05-23T11:03:12.567Z,20.25
2019-05-23T11:05:39.293Z,20.11
2019-05-23T11:08:07.785Z,20.16
2019-05-23T11:10:34.940Z,19.75
2019-05-23T11:13:02.828Z,19.94
2019-05-23T11:15:30.159Z,19.97
2019-05-23T11:17:57.360Z,20.04
2019-05-23T11:20:26.931Z,19.82
2019-05-23T11:22:55.769Z,19.61
2019-05-23T11:25:23.559Z,19.52
2019-05-23T11:27:50.340Z,20.07
2019-05-23T11:30:22.302Z,20.33
2019-05-23T11:32:48.979Z,20.41
2019-05-23T11:35:15.763Z,20.69
2019-05-23T11:37:42.678Z,20.50
2019-05-23T11:40:09.679Z,20.10
2019-05-23T11:42:36.351Z,20.89
2019-05-23T11:45:05.125Z,21.01
2019-05-23T11:47:32.300Z,20.84
2019-05-23T11:49:59.205Z,20.98
2019-05-23T11:52:26.541Z,21.26
2019-05-23T11:54:53.381Z,21.08
2019-05-23T11:57:20.213Z,20.50
2019-05-23T11:59:48.869Z,20.38
2019-05-23T12:02:23.929Z,20.74
2019-05-23T12:04:52.415Z,20.54
2019-05-23T12:07:20.937Z,20.63
2019-05-23T12:09:47.902Z,20.31
2019-05-23T12:12:14.693Z,20.34
2019-05-23T12:14:41.386Z,20.72
2019-05-23T12:17:08.415Z,20.74
2019-05-23T12:19:35.762Z,20.81
2019-05-23T12:22:02.674Z,20.95
2019-05-23T12:24:34.422Z,21.17
2019-05-23T12:26:58.278Z,20.87
2019-05-23T12:29:25.106Z,20.95
2019-05-23T12:31:51.804Z,21.21
2019-05-23T12:34:18.800Z,21.26
2019-05-23T12:36:45.517Z,21.19
2019-05-23T12:39:12.492Z,20.96
2019-05-23T12:41:41.358Z,21.00
2019-05-23T12:44:08.437Z,21.16
2019-05-23T12:46:35.078Z,20.76
2019-05-23T12:49:03.773Z,21.03
2019-05-23T12:51:38.180Z,21.18
2019-05-23T12:54:05.086Z,21.52
2019-05-23T12:56:32.483Z,20.91
2019-05-23T12:59:00.022Z,20.46
2019-05-23T13:01:28.249Z,20.62
2019-05-23T13:03:55.077Z,20.42
2019-05-23T13:06:21.872Z,20.56
2019-05-23T13:08:48.837Z,20.72
2019-05-23T13:11:15.763Z,20.46
2019-05-23T13:13:42.511Z,20.08
2019-05-23T13:16:09.292Z,19.77
2019-05-23T13:18:35.973Z,19.94
2019-05-23T13:21:02.748Z,20.32
2019-05-23T13:23:29.762Z,20.40
2019-05-23T13:25:56.472Z,20.01
2019-05-23T13:28:23.533Z,19.92
2019-05-23T13:30:50.436Z,20.04
2019-05-23T13:33:17.384Z,20.35
2019-05-23T13:35:44.609Z,20.26
2019-05-23T13:38:11.622Z,19.91
2019-05-23T13:40:38.567Z,19.94
2019-05-23T13:43:08.028Z,19.63
2019-05-23T13:45:34.062Z,19.44
2019-05-23T13:48:00.861Z,19.84
2019-05-23T13:50:27.892Z,20.13
2019-05-23T13:52:54.765Z,19.94
2019-05-23T13:55:22.030Z,20.09
2019-05-23T13:57:49.029Z,20.18
2019-05-23T14:00:17.771Z,20.56
2019-05-23T14:02:44.543Z,20.43
2019-05-23T14:05:11.854Z,20.50
2019-05-23T14:07:38.630Z,20.52
2019-05-23T14:10:10.112Z,20.32
2019-05-23T14:12:37.204Z,20.40
2019-05-23T14:15:09.946Z,20.43
2019-05-23T14:17:41.803Z,20.53
2019-05-23T14:20:08.683Z,20.30
2019-05-23T14:22:40.128Z,20.36
2019-05-23T14:25:07.016Z,20.15
2019-05-23T14:27:47.684Z,19.68
2019-05-23T14:30:29.553Z,19.36
2019-05-23T14:32:58.972Z,19.05
2019-05-23T14:35:27.576Z,18.77
2019-05-23T14:37:57.303Z,18.61
2019-05-23T14:40:24.467Z,18.47
2019-05-23T14:42:53.586Z,18.58
2019-05-23T14:45:39.222Z,18.70
2019-05-23T14:48:11.727Z,18.75
2019-05-23T14:50:53.764Z,18.83
2019-05-23T14:53:22.454Z,18.97
2019-05-23T14:55:49.262Z,18.94
2019-05-23T14:58:16.084Z,19.03
2019-05-23T15:00:44.613Z,19.13
2019-05-23T15:03:11.992Z,19.21
2019-05-23T15:05:38.823Z,19.47
2019-05-23T15:08:05.534Z,19.63
2019-05-23T15:10:32.298Z,19.50
2019-05-23T15:12:59.184Z,19.67
2019-05-23T15:15:26.076Z,19.78
2019-05-23T15:17:52.913Z,19.71
2019-05-23T15:20:19.635Z,19.63
2019-05-23T15:22:46.312Z,19.30
2019-05-23T15:25:13.199Z,19.20
2019-05-23T15:27:39.984Z,19.13
2019-05-23T15:30:07.488Z,18.83
2019-05-23T15:32:34.323Z,18.77
2019-05-23T15:35:01.067Z,18.62
2019-05-23T15:37:28.106Z,18.58
2019-05-23T15:39:54.992Z,18.27
2019-05-23T15:42:21.990Z,18.29
2019-05-23T15:44:48.801Z,18.23
2019-05-23T15:47:16.860Z,17.94
2019-05-23T15:49:45.564Z,17.88
2019-05-23T15:52:33.291Z,17.85
2019-05-23T15:55:02.075Z,17.73
2019-05-23T15:57:47.899Z,17.79
2019-05-23T16:00:20.022Z,17.80
2019-05-23T16:02:52.520Z,17.62
2019-05-23T16:05:19.293Z,17.66
2019-05-23T16:07:46.318Z,17.59
2019-05-23T16:10:13.626Z,17.51
2019-05-23T16:12:41.950Z,17.53
2019-05-23T16:15:09.205Z,17.43
2019-05-23T16:17:36.316Z,17.46
2019-05-23T16:20:04.721Z,17.42
2019-05-23T16:22:31.786Z,17.47
2019-05-23T16:24:58.464Z,17.38
2019-05-23T16:27:25.303Z,17.25
2019-05-23T16:29:52.415Z,17.30
2019-05-23T16:32:19.355Z,17.31
2019-05-23T16:34:46.548Z,17.08
2019-05-23T16:37:13.970Z,16.99
2019-05-23T16:39:47.178Z,16.85
2019-05-23T16:42:10.978Z,17.01
2019-05-23T16:44:37.979Z,16.86
2019-05-23T16:47:04.993Z,16.99
2019-05-23T16:49:31.789Z,17.05
2019-05-23T16:51:59.582Z,16.97
2019-05-23T16:54:28.103Z,16.91
2019-05-23T16:56:56.656Z,16.64
2019-05-23T16:59:25.264Z,16.57
2019-05-23T17:02:06.512Z,16.62
2019-05-23T17:04:36.976Z,16.69
2019-05-23T17:07:14.879Z,16.69
2019-05-23T17:09:43.562Z,16.69
2019-05-23T17:12:24.245Z,16.63
2019-05-23T17:14:52.803Z,16.51
2019-05-23T17:17:57.477Z,16.43
2019-05-23T17:20:23.438Z,16.44
2019-05-23T17:22:52.219Z,16.47
2019-05-23T17:25:21.129Z,16.53
2019-05-23T17:27:50.021Z,16.37
2019-05-23T17:30:35.691Z,16.24
2019-05-23T17:33:04.379Z,16.39
2019-05-23T17:35:31.169Z,16.13
2019-05-23T17:37:57.882Z,16.34
2019-05-23T17:40:25.853Z,16.36
2019-05-23T17:42:53.033Z,16.24
2019-05-23T17:45:19.959Z,16.23
2019-05-23T17:47:46.988Z,16.04
2019-05-23T17:50:13.876Z,16.13
2019-05-23T17:52:40.571Z,16.17
2019-05-23T17:55:07.487Z,16.09
2019-05-23T17:57:34.791Z,16.04
2019-05-23T18:00:01.513Z,16.04
2019-05-23T18:02:28.552Z,16.04
2019-05-23T18:04:55.418Z,16.03
2019-05-23T18:07:22.447Z,15.83
2019-05-23T18:09:49.699Z,15.78
2019-05-23T18:12:16.610Z,15.76
2019-05-23T18:14:43.503Z,15.78
2019-05-23T18:17:10.753Z,15.70
2019-05-23T18:19:38.196Z,15.56
2019-05-23T18:22:05.198Z,15.69
2019-05-23T18:24:33.046Z,15.65
2019-05-23T18:26:59.818Z,15.63
2019-05-23T18:29:26.609Z,15.58
2019-05-23T18:31:54.390Z,15.60
2019-05-23T18:34:22.013Z,15.58
2019-05-23T18:36:48.965Z,15.56
2019-05-23T18:39:16.649Z,15.45
2019-05-23T18:41:44.516Z,15.45
2019-05-23T18:44:12.944Z,15.28
2019-05-23T18:46:52.373Z,15.39
2019-05-23T18:49:19.366Z,15.37
2019-05-23T18:51:46.348Z,15.41
2019-05-23T18:54:13.289Z,15.40
2019-05-23T18:56:40.194Z,15.29
2019-05-23T18:59:07.600Z,15.27
2019-05-23T19:01:34.392Z,15.32
2019-05-23T19:04:01.413Z,15.24
2019-05-23T19:06:28.974Z,15.16
2019-05-23T19:08:57.022Z,15.03
2019-05-23T19:11:24.444Z,15.06
2019-05-23T19:13:51.386Z,15.10
2019-05-23T19:16:18.128Z,15.02
2019-05-23T19:18:46.775Z,14.89
2019-05-23T19:21:14.461Z,14.85
2019-05-23T19:23:41.983Z,14.99
2019-05-23T19:26:09.073Z,14.98
2019-05-23T19:28:36.286Z,15.07
2019-05-23T19:31:04.418Z,15.02
2019-05-23T19:33:31.344Z,15.05
2019-05-23T19:35:58.239Z,15.02
2019-05-23T19:38:25.241Z,15.07
2019-05-23T19:40:52.068Z,14.97
2019-05-23T19:43:20.769Z,14.92
2019-05-23T19:45:47.655Z,14.90
2019-05-23T19:48:14.584Z,14.81
2019-05-23T19:50:41.400Z,14.74
2019-05-23T19:53:08.103Z,14.87
2019-05-23T19:55:34.980Z,14.73
2019-05-23T19:58:01.699Z,14.77
2019-05-23T20:00:30.315Z,14.76
2019-05-23T20:02:58.462Z,14.78
2019-05-23T20:05:30.121Z,14.69
2019-05-23T20:07:57.098Z,14.71
2019-05-23T20:10:25.990Z,14.57
2019-05-23T20:12:52.763Z,14.59
2019-05-23T20:15:20.967Z,14.54
2019-05-23T20:17:51.451Z,14.51
2019-05-23T20:20:16.404Z,14.22
2019-05-23T20:22:43.249Z,14.37
2019-05-23T20:25:11.460Z,14.38
2019-05-23T20:27:38.138Z,14.29
2019-05-23T20:30:07.297Z,14.37
2019-05-23T20:32:34.223Z,14.36
2019-05-23T20:35:01.014Z,14.33
2019-05-23T20:37:29.508Z,14.35
2019-05-23T20:39:56.195Z,14.27
2019-05-23T20:42:22.921Z,14.41
2019-05-23T20:44:49.728Z,14.45
2019-05-23T20:47:16.686Z,14.56
2019-05-23T20:49:43.388Z,14.53
2019-05-23T20:52:10.192Z,14.51
2019-05-23T20:54:37.020Z,14.49
2019-05-23T20:57:03.902Z,14.49
2019-05-23T20:59:30.815Z,14.47
2019-05-23T21:01:58.062Z,14.46
2019-05-23T21:04:24.733Z,14.45
2019-05-23T21:06:51.718Z,14.42
2019-05-23T21:09:18.434Z,14.36
2019-05-23T21:11:45.125Z,14.30
2019-05-23T21:14:12.097Z,14.25
2019-05-23T21:16:38.934Z,14.23
2019-05-23T21:19:05.581Z,14.01
2019-05-23T21:21:32.264Z,14.05
2019-05-23T21:23:58.977Z,14.06
2019-05-23T21:26:25.685Z,14.09
2019-05-23T21:28:52.609Z,14.06
2019-05-23T21:31:21.446Z,14.05
2019-05-23T21:33:48.262Z,14.10
2019-05-23T21:36:14.943Z,14.10
2019-05-23T21:38:41.633Z,14.05
2019-05-23T21:41:08.454Z,14.09
2019-05-23T21:43:35.309Z,14.13
2019-05-23T21:46:01.993Z,14.06
2019-05-23T21:48:28.712Z,14.07
2019-05-23T21:50:55.691Z,14.03
2019-05-23T21:53:22.623Z,14.04
2019-05-23T21:55:49.607Z,14.01
2019-05-23T21:58:16.310Z,14.00
2019-05-23T22:00:51.620Z,13.95
2019-05-23T22:03:21.913Z,13.92
2019-05-23T22:05:48.722Z,13.94
2019-05-23T22:08:15.556Z,13.92
2019-05-23T22:10:42.355Z,13.89
2019-05-23T22:13:09.110Z,13.79
2019-05-23T22:15:36.599Z,13.79
2019-05-23T22:18:04.805Z,13.87
2019-05-23T22:20:31.539Z,13.86
2019-05-23T22:22:58.762Z,13.75
2019-05-23T22:25:32.050Z,13.85
2019-05-23T22:27:59.025Z,13.76
2019-05-23T22:30:25.885Z,13.78
2019-05-23T22:32:52.737Z,13.76
2019-05-23T22:35:20.462Z,13.64
2019-05-23T22:37:47.300Z,13.62
2019-05-23T22:40:14.407Z,13.68
2019-05-23T22:42:41.930Z,13.67
2019-05-23T22:45:12.348Z,13.69
2019-05-23T22:47:39.249Z,13.68
2019-05-23T22:50:06.281Z,13.62
2019-05-23T22:52:33.074Z,13.62
2019-05-23T22:54:59.924Z,13.66
2019-05-23T22:57:26.697Z,13.61
2019-05-23T22:59:53.489Z,13.69
2019-05-23T23:02:20.404Z,13.59
2019-05-23T23:04:47.201Z,13.66
2019-05-23T23:07:14.878Z,13.69
2019-05-23T23:09:41.675Z,13.60
2019-05-23T23:12:08.493Z,13.62
2019-05-23T23:14:35.319Z,13.59
2019-05-23T23:17:02.169Z,13.55
2019-05-23T23:19:29.229Z,13.54
2019-05-23T23:21:56.046Z,13.55
2019-05-23T23:24:22.738Z,13.52
2019-05-23T23:26:49.671Z,13.53
2019-05-23T23:29:16.452Z,13.50
2019-05-23T23:31:43.241Z,13.42
2019-05-23T23:34:10.052Z,13.42
2019-05-23T23:36:36.788Z,13.32
2019-05-23T23:39:05.494Z,13.33
2019-05-23T23:41:32.259Z,13.30
2019-05-23T23:44:00.125Z,13.34
2019-05-23T23:46:45.590Z,13.26
2019-05-23T23:49:30.795Z,13.30
2019-05-23T23:52:16.028Z,13.23
2019-05-23T23:55:01.656Z,13.30
2019-05-23T23:57:46.897Z,13.24
